Time;durP1;ratioP1;P1;durP2;ratioP2;P2;SDS_P1;SDS_P2;PMS_P1;PMS_P2;Temp;Humidity;BMP_temperature;BMP_pressure;BME280_temperature;BME280_humidity;BME280_pressure;Samples;Min_cycle;Max_cycle;Signal;HPM_P1;HPM_P2
2022/04/14 00:01:48;;;;;;;9.63;6.60;;;9.00;99.90;;;;;;5047382;28;20484;-83
2022/04/14 00:04:13;;;;;;;7.68;6.50;;;8.90;99.90;;;;;;5048334;28;20422;-83
2022/04/14 00:06:39;;;;;;;8.52;6.22;;;8.90;99.90;;;;;;5042942;28;20417;-83
2022/04/14 00:09:05;;;;;;;8.80;6.33;;;8.90;99.90;;;;;;5041214;28;20417;-83
2022/04/14 00:11:31;;;;;;;8.07;6.30;;;8.90;99.90;;;;;;5040143;28;20460;-82
2022/04/14 00:13:56;;;;;;;9.05;7.20;;;8.80;99.90;;;;;;5041248;28;20396;-83
2022/04/14 00:16:22;;;;;;;7.80;6.53;;;8.80;99.90;;;;;;5042844;28;20396;-83
2022/04/14 00:18:48;;;;;;;8.70;6.53;;;8.80;99.90;;;;;;5045021;28;20364;-84
2022/04/14 00:21:14;;;;;;;8.10;6.30;;;8.80;99.90;;;;;;5043201;28;20432;-83
2022/04/14 00:23:40;;;;;;;7.70;6.40;;;8.80;99.90;;;;;;5042117;28;20799;-84
2022/04/14 00:26:05;;;;;;;7.50;6.60;;;8.70;99.90;;;;;;5044461;28;20402;-82
2022/04/14 00:28:31;;;;;;;10.37;7.00;;;8.70;99.90;;;;;;5042643;28;20953;-83
2022/04/14 00:30:59;;;;;;;9.10;6.90;;;8.60;99.90;;;;;;5044193;28;20469;-82
2022/04/14 00:33:25;;;;;;;9.40;6.72;;;8.60;99.90;;;;;;5044533;28;20385;-83
2022/04/14 00:35:52;;;;;;;8.85;7.40;;;8.50;99.90;;;;;;5043088;28;20455;-83
2022/04/14 00:38:17;;;;;;;8.20;6.82;;;8.50;99.90;;;;;;5043602;28;20386;-82
2022/04/14 00:40:43;;;;;;;7.47;6.32;;;8.50;99.90;;;;;;5040250;28;20421;-82
2022/04/14 00:43:09;;;;;;;7.37;6.67;;;8.50;99.90;;;;;;5044296;28;20481;-83
2022/04/14 00:45:34;;;;;;;7.55;6.40;;;8.50;99.90;;;;;;5042899;28;20458;-83
2022/04/14 00:48:00;;;;;;;9.27;6.32;;;8.50;99.90;;;;;;5042650;28;20882;-83
2022/04/14 00:50:26;;;;;;;7.60;6.78;;;8.50;99.90;;;;;;5043100;28;20384;-83
2022/04/14 00:52:54;;;;;;;8.05;6.68;;;8.50;99.90;;;;;;5042833;28;20420;-83
2022/04/14 00:55:20;;;;;;;7.80;6.80;;;8.50;99.90;;;;;;5043087;28;20372;-82
2022/04/14 00:57:45;;;;;;;9.43;7.23;;;8.50;99.90;;;;;;5041666;28;20394;-82
2022/04/14 01:00:12;;;;;;;9.57;7.30;;;8.50;99.90;;;;;;5044875;28;20407;-82
2022/04/14 01:02:37;;;;;;;8.30;7.25;;;8.50;99.90;;;;;;5054281;28;20391;-83
2022/04/14 01:05:04;;;;;;;9.03;7.50;;;8.40;99.90;;;;;;5052617;28;20380;-82
2022/04/14 01:07:30;;;;;;;9.15;7.15;;;8.40;99.90;;;;;;5052713;28;20865;-82
2022/04/14 01:09:56;;;;;;;7.97;7.18;;;8.40;99.90;;;;;;5052548;28;20403;-82
2022/04/14 01:12:23;;;;;;;10.20;7.78;;;8.30;99.90;;;;;;5052252;28;20384;-83
2022/04/14 01:14:49;;;;;;;9.38;7.82;;;8.30;99.90;;;;;;5053583;28;20472;-82
2022/04/14 01:17:15;;;;;;;9.25;8.35;;;8.30;99.90;;;;;;5053328;28;20379;-82
2022/04/14 01:19:41;;;;;;;8.65;7.78;;;8.40;99.90;;;;;;5053976;28;20407;-82
2022/04/14 01:22:26;;;;;;;9.18;8.18;;;8.40;99.90;;;;;;5052570;28;20463;-84
2022/04/14 01:24:56;;;;;;;8.63;7.60;;;8.40;99.90;;;;;;5052389;28;20384;-84
2022/04/14 01:27:23;;;;;;;9.25;8.35;;;8.30;99.90;;;;;;5054240;28;20445;-83
2022/04/14 01:29:51;;;;;;;9.00;8.00;;;8.30;99.90;;;;;;5052680;28;20387;-83
2022/04/14 01:32:18;;;;;;;9.20;8.20;;;8.30;99.90;;;;;;5053894;28;20392;-83
2022/04/14 01:34:44;;;;;;;8.77;7.88;;;8.20;99.90;;;;;;5052049;28;20391;-83
2022/04/14 01:37:10;;;;;;;8.68;7.82;;;8.20;99.90;;;;;;5051709;28;20375;-84
2022/04/14 01:39:35;;;;;;;8.90;8.00;;;8.10;99.90;;;;;;5053810;28;20695;-84
2022/04/14 01:42:01;;;;;;;11.07;9.02;;;8.10;99.90;;;;;;5052618;28;20403;-85
2022/04/14 01:44:27;;;;;;;11.75;8.95;;;8.00;99.90;;;;;;5054892;28;20387;-83
2022/04/14 01:46:53;;;;;;;11.00;9.80;;;7.90;99.90;;;;;;5055248;28;20438;-84
2022/04/14 01:49:18;;;;;;;12.13;10.50;;;7.80;99.90;;;;;;5054449;28;20522;-84
2022/04/14 01:51:44;;;;;;;11.55;10.25;;;8.00;99.90;;;;;;5056183;28;20452;-84
2022/04/14 01:54:09;;;;;;;11.73;10.53;;;8.20;99.90;;;;;;5054418;28;20882;-84
2022/04/14 01:56:35;;;;;;;13.13;10.13;;;8.30;99.90;;;;;;5057072;28;20467;-83
2022/04/14 01:59:01;;;;;;;12.13;10.82;;;8.40;99.90;;;;;;5055360;28;20479;-84
2022/04/14 02:01:28;;;;;;;11.55;9.70;;;8.50;99.90;;;;;;5056741;28;20404;-84
2022/04/14 02:03:54;;;;;;;11.13;9.98;;;8.60;99.90;;;;;;5056354;28;20390;-84
2022/04/14 02:06:20;;;;;;;11.82;10.45;;;8.80;99.90;;;;;;5057210;28;20437;-83
2022/04/14 02:08:46;;;;;;;12.40;10.07;;;8.80;99.90;;;;;;5057853;28;20943;-84
2022/04/14 02:11:11;;;;;;;12.03;10.13;;;8.80;99.90;;;;;;5053420;28;20411;-83
2022/04/14 02:13:38;;;;;;;12.38;9.80;;;8.90;99.90;;;;;;5056166;28;20387;-84
2022/04/14 02:16:04;;;;;;;9.75;8.75;;;8.90;99.90;;;;;;5055788;28;20734;-83
2022/04/14 02:18:32;;;;;;;13.50;10.93;;;8.90;99.90;;;;;;5056507;28;20570;-85
2022/04/14 02:20:59;;;;;;;11.13;9.13;;;8.90;99.90;;;;;;5055091;28;20407;-84
2022/04/14 02:23:25;;;;;;;12.70;9.70;;;8.80;99.90;;;;;;5057359;28;20383;-83
2022/04/14 02:25:51;;;;;;;11.75;10.55;;;8.80;99.90;;;;;;5055534;28;20399;-84
2022/04/14 02:28:16;;;;;;;13.07;11.13;;;8.80;99.90;;;;;;5057072;28;20387;-84
2022/04/14 02:30:42;;;;;;;13.10;11.73;;;8.70;99.90;;;;;;5057362;28;20459;-84
2022/04/14 02:33:08;;;;;;;15.65;12.43;;;8.90;99.90;;;;;;5059032;28;20375;-83
2022/04/14 02:35:34;;;;;;;14.60;13.07;;;9.00;99.90;;;;;;5057598;28;20391;-83
2022/04/14 02:37:59;;;;;;;15.82;14.05;;;9.30;99.90;;;;;;5055182;28;21068;-83
2022/04/14 02:40:37;;;;;;;14.60;13.03;;;9.70;99.90;;;;;;5055034;28;20507;-83
2022/04/14 02:43:03;;;;;;;16.40;13.35;;;10.20;99.90;;;;;;5057690;28;20383;-83
2022/04/14 02:45:29;;;;;;;14.68;12.73;;;10.50;99.90;;;;;;5056535;28;20388;-83
2022/04/14 02:47:55;;;;;;;14.88;13.18;;;10.80;99.90;;;;;;5058592;28;20876;-83
2022/04/14 02:50:21;;;;;;;16.80;13.50;;;10.80;99.90;;;;;;5057745;28;20368;-83
2022/04/14 02:52:50;;;;;;;15.47;12.80;;;11.10;99.90;;;;;;5056602;28;20399;-83
2022/04/14 02:55:20;;;;;;;15.18;13.50;;;11.20;99.90;;;;;;5058375;28;20388;-83
2022/04/14 02:57:45;;;;;;;15.02;13.45;;;11.10;99.90;;;;;;5059149;28;20391;-82
2022/04/14 03:00:11;;;;;;;16.27;13.60;;;11.00;99.90;;;;;;5060538;28;20433;-83
2022/04/14 03:02:38;;;;;;;16.42;13.05;;;11.00;99.90;;;;;;5059429;28;20410;-83
2022/04/14 03:05:32;;;;;;;16.55;13.55;;;11.20;99.90;;;;;;5060577;28;20372;-85
2022/04/14 03:07:58;;;;;;;14.63;13.05;;;11.30;99.90;;;;;;5059264;28;20475;-82
2022/04/14 03:10:23;;;;;;;14.83;13.27;;;11.40;99.90;;;;;;5051519;28;20473;-85
2022/04/14 03:12:51;;;;;;;15.75;13.25;;;11.20;99.90;;;;;;5052207;28;20395;-84
2022/04/14 03:15:17;;;;;;;15.32;13.30;;;11.30;99.90;;;;;;5049726;28;20388;-84
2022/04/14 03:17:43;;;;;;;15.82;13.75;;;11.30;99.90;;;;;;5052174;28;20434;-83
2022/04/14 03:20:09;;;;;;;14.60;12.60;;;11.30;99.90;;;;;;5051091;28;20403;-84
2022/04/14 03:22:36;;;;;;;15.00;13.05;;;11.30;99.90;;;;;;5051329;28;20368;-84
2022/04/14 03:25:06;;;;;;;14.48;12.88;;;11.40;99.90;;;;;;5051643;28;20881;-84
2022/04/14 03:27:33;;;;;;;14.75;12.98;;;11.40;99.90;;;;;;5052912;28;20391;-83
2022/04/14 03:29:59;;;;;;;14.18;11.93;;;11.40;99.90;;;;;;5050039;28;20384;-83
2022/04/14 03:32:25;;;;;;;14.10;11.45;;;11.50;99.90;;;;;;5051384;28;20448;-83
2022/04/14 03:34:53;;;;;;;14.32;12.27;;;11.60;99.90;;;;;;5051427;28;20919;-84
2022/04/14 03:37:19;;;;;;;13.38;11.20;;;11.60;99.90;;;;;;5051050;28;20465;-84
2022/04/14 03:39:45;;;;;;;14.07;12.15;;;11.50;99.90;;;;;;5052492;28;20894;-84
2022/04/14 03:42:11;;;;;;;13.37;11.40;;;11.50;99.90;;;;;;5051944;28;20400;-84
2022/04/14 03:44:37;;;;;;;12.98;11.20;;;11.40;99.90;;;;;;5052497;28;20415;-84
2022/04/14 03:47:03;;;;;;;13.88;12.38;;;11.40;99.90;;;;;;5051973;28;20425;-85
2022/04/14 03:49:28;;;;;;;13.75;12.35;;;11.30;99.90;;;;;;5053411;28;20908;-83
2022/04/14 03:51:55;;;;;;;13.20;11.40;;;11.10;99.90;;;;;;5056930;28;20407;-83
2022/04/14 03:54:21;;;;;;;12.40;11.18;;;11.10;99.90;;;;;;5055417;28;20403;-83
2022/04/14 03:56:48;;;;;;;13.20;11.90;;;11.10;99.90;;;;;;5055526;28;20371;-83
2022/04/14 03:59:14;;;;;;;13.68;11.90;;;11.00;99.90;;;;;;5054798;28;20388;-83
2022/04/14 04:01:41;;;;;;;13.02;11.25;;;10.90;99.90;;;;;;5056973;28;20486;-84
2022/04/14 04:04:06;;;;;;;14.43;11.93;;;10.90;99.90;;;;;;5057043;28;20376;-83
2022/04/14 04:06:32;;;;;;;14.27;12.70;;;10.80;99.90;;;;;;5057170;28;20391;-82
2022/04/14 04:08:58;;;;;;;14.80;12.53;;;10.40;99.90;;;;;;5056911;28;20380;-83
2022/04/14 04:11:23;;;;;;;14.30;12.80;;;10.30;99.90;;;;;;5056802;28;20434;-83
2022/04/14 04:13:49;;;;;;;14.13;12.50;;;10.20;99.90;;;;;;5056349;28;20934;-83
2022/04/14 04:16:15;;;;;;;42.63;14.37;;;10.20;99.90;;;;;;5057065;28;20408;-83
2022/04/14 04:18:40;;;;;;;22.20;12.97;;;10.10;99.90;;;;;;5055853;28;20383;-83
2022/04/14 04:21:06;;;;;;;21.23;12.65;;;10.20;99.90;;;;;;5058178;28;20430;-83
2022/04/14 04:23:31;;;;;;;21.03;13.17;;;10.10;99.90;;;;;;5057077;28;20885;-83
2022/04/14 04:25:57;;;;;;;16.70;11.73;;;10.00;99.90;;;;;;5057543;28;20897;-83
2022/04/14 04:28:30;;;;;;;14.93;12.82;;;10.10;99.90;;;;;;5057116;28;20403;-83
2022/04/14 04:30:56;;;;;;;13.77;10.85;;;10.10;99.90;;;;;;5057643;28;20388;-83
2022/04/14 04:33:21;;;;;;;14.63;11.45;;;10.10;99.90;;;;;;5055649;28;20449;-85
2022/04/14 04:35:49;;;;;;;15.53;11.77;;;10.20;99.90;;;;;;5056218;28;20379;-84
2022/04/14 04:38:14;;;;;;;17.08;11.40;;;10.30;99.90;;;;;;5055478;28;20372;-83
2022/04/14 04:40:40;;;;;;;14.37;12.13;;;10.40;99.90;;;;;;5054155;28;20415;-83
2022/04/14 04:43:05;;;;;;;13.03;11.63;;;10.40;99.90;;;;;;5054797;28;20396;-83
2022/04/14 04:45:31;;;;;;;27.67;12.65;;;10.30;99.90;;;;;;5055465;28;20379;-83
2022/04/14 04:47:57;;;;;;;16.43;11.73;;;10.30;99.90;;;;;;5053699;28;20372;-83
2022/04/14 04:50:22;;;;;;;14.02;11.07;;;10.20;99.90;;;;;;5054697;28;20387;-83
2022/04/14 04:52:48;;;;;;;13.48;10.57;;;10.30;99.90;;;;;;5053796;28;20410;-83
2022/04/14 04:55:13;;;;;;;11.37;10.20;;;10.40;99.90;;;;;;5054060;28;20394;-84
2022/04/14 04:57:39;;;;;;;11.90;10.65;;;10.50;99.90;;;;;;5053242;28;20889;-83
2022/04/14 05:00:05;;;;;;;11.33;9.67;;;10.60;99.90;;;;;;5052646;28;20902;-84
2022/04/14 05:02:31;;;;;;;16.92;12.00;;;10.70;99.90;;;;;;5055362;28;20378;-83
2022/04/14 05:04:56;;;;;;;17.07;12.17;;;10.70;99.90;;;;;;5053756;28;20455;-83
2022/04/14 05:07:22;;;;;;;14.73;11.13;;;10.70;99.90;;;;;;5053511;28;20384;-84
2022/04/14 05:09:47;;;;;;;13.70;11.88;;;10.80;99.90;;;;;;5055016;28;20375;-83
2022/04/14 05:12:13;;;;;;;16.90;12.87;;;10.90;99.90;;;;;;5053229;28;20442;-83
2022/04/14 05:14:39;;;;;;;15.60;13.25;;;10.90;99.90;;;;;;5054363;28;20379;-83
2022/04/14 05:17:05;;;;;;;14.47;11.93;;;11.00;99.90;;;;;;5055304;28;20418;-83
2022/04/14 05:19:30;;;;;;;14.63;12.27;;;11.10;99.90;;;;;;5054727;28;20368;-83
2022/04/14 05:21:56;;;;;;;14.40;12.53;;;11.20;99.90;;;;;;5055024;28;20433;-84
2022/04/14 05:24:23;;;;;;;16.20;12.02;;;11.20;99.90;;;;;;5054256;28;20384;-83
2022/04/14 05:26:48;;;;;;;13.32;11.80;;;11.30;99.90;;;;;;5056283;28;20372;-83
2022/04/14 05:29:14;;;;;;;14.43;12.53;;;11.40;99.90;;;;;;5056186;28;20457;-83
2022/04/14 05:31:40;;;;;;;14.77;12.02;;;11.50;99.90;;;;;;5054756;28;20395;-82
2022/04/14 05:34:05;;;;;;;12.70;11.43;;;11.60;99.90;;;;;;5055224;28;20866;-84
2022/04/14 05:36:31;;;;;;;13.13;11.33;;;11.80;99.90;;;;;;5054769;28;20462;-83
2022/04/14 05:38:57;;;;;;;13.55;12.15;;;11.90;99.90;;;;;;5055281;28;21013;-84
2022/04/14 05:41:23;;;;;;;14.35;11.52;;;12.00;99.90;;;;;;5055022;28;20801;-84
2022/04/14 05:43:48;;;;;;;14.98;11.90;;;12.20;99.90;;;;;;5054924;28;20432;-83
2022/04/14 05:46:14;;;;;;;13.83;12.20;;;12.40;99.90;;;;;;5054797;28;20384;-83
2022/04/14 05:48:40;;;;;;;12.90;11.47;;;12.50;99.90;;;;;;5056083;28;20422;-84
2022/04/14 05:51:05;;;;;;;14.35;11.80;;;12.70;99.90;;;;;;5055364;28;20380;-83
2022/04/14 05:53:31;;;;;;;14.73;10.97;;;12.90;99.90;;;;;;5057169;28;20548;-83
2022/04/14 05:55:57;;;;;;;13.30;11.15;;;13.00;99.90;;;;;;5057442;28;20364;-83
2022/04/14 05:58:23;;;;;;;15.20;11.93;;;13.10;99.90;;;;;;5056328;28;20376;-83
2022/04/14 06:00:48;;;;;;;13.13;11.43;;;13.30;99.90;;;;;;5056691;28;20402;-84
2022/04/14 06:03:14;;;;;;;14.73;11.33;;;13.50;99.90;;;;;;5055992;28;20415;-84
2022/04/14 06:05:40;;;;;;;16.80;10.82;;;13.60;99.90;;;;;;5056313;28;20463;-84
2022/04/14 06:08:06;;;;;;;12.40;11.10;;;13.70;99.90;;;;;;5056341;28;20380;-84
2022/04/14 06:10:32;;;;;;;12.05;10.80;;;13.80;99.90;;;;;;5056397;28;20451;-84
2022/04/14 06:12:57;;;;;;;12.27;10.97;;;14.00;99.90;;;;;;5055760;28;20411;-84
2022/04/14 06:15:23;;;;;;;12.90;10.93;;;14.10;99.90;;;;;;5057875;28;20371;-84
2022/04/14 06:17:50;;;;;;;15.80;11.05;;;14.30;99.90;;;;;;5055995;28;20734;-84
2022/04/14 06:20:16;;;;;;;15.30;10.77;;;14.40;99.90;;;;;;5055721;28;20396;-83
2022/04/14 06:22:43;;;;;;;11.77;10.33;;;14.50;99.90;;;;;;5057787;28;20383;-83
2022/04/14 06:25:13;;;;;;;16.65;10.38;;;14.80;99.90;;;;;;5058245;28;20422;-84
2022/04/14 06:27:44;;;;;;;15.00;10.03;;;15.00;99.90;;;;;;5058993;28;20395;-83
2022/04/14 06:30:11;;;;;;;12.68;10.07;;;15.20;99.90;;;;;;5059449;28;20512;-83
2022/04/14 06:32:37;;;;;;;13.02;9.90;;;15.30;99.90;;;;;;5057006;28;20380;-83
2022/04/14 06:35:08;;;;;;;10.85;9.73;;;15.40;99.90;;;;;;5055064;28;20379;-83
2022/04/14 06:37:34;;;;;;;12.23;9.45;;;15.40;99.90;;;;;;5055893;28;20392;-83
2022/04/14 06:40:01;;;;;;;12.05;10.07;;;15.30;99.90;;;;;;5054068;28;20810;-83
2022/04/14 06:42:26;;;;;;;11.05;9.30;;;15.30;99.90;;;;;;5055632;28;20526;-84
2022/04/14 06:44:56;;;;;;;12.67;9.77;;;15.20;99.90;;;;;;5057723;28;20439;-83
2022/04/14 06:47:22;;;;;;;10.47;9.33;;;15.20;99.90;;;;;;5054678;28;20392;-84
2022/04/14 06:49:48;;;;;;;11.70;9.07;;;15.20;99.90;;;;;;5044836;28;20906;-84
2022/04/14 06:52:14;;;;;;;10.53;8.33;;;15.50;99.90;;;;;;5037144;28;20400;-83
2022/04/14 06:54:40;;;;;;;10.10;8.45;;;15.60;99.90;;;;;;5031405;28;20389;-83
2022/04/14 06:57:05;;;;;;;10.03;8.80;;;15.80;99.90;;;;;;5034355;28;21482;-83
2022/04/14 07:00:01;;;;;;;11.13;8.10;;;15.90;99.90;;;;;;5033733;28;20912;-83
2022/04/14 07:02:29;;;;;;;11.40;7.88;;;16.10;99.90;;;;;;5051952;28;20406;-83
2022/04/14 07:04:55;;;;;;;9.07;7.65;;;16.00;99.90;;;;;;5053896;28;20462;-83
2022/04/14 07:07:20;;;;;;;10.03;8.47;;;16.20;99.90;;;;;;5051690;28;20893;-82
2022/04/14 07:09:46;;;;;;;12.15;8.00;;;16.40;99.90;;;;;;5052894;28;20384;-83
2022/04/14 07:12:13;;;;;;;10.73;8.23;;;16.20;99.90;;;;;;5047204;28;20932;-83
2022/04/14 07:14:39;;;;;;;9.05;7.35;;;16.00;99.90;;;;;;5052222;28;20885;-84
2022/04/14 07:17:05;;;;;;;8.10;6.90;;;16.20;99.90;;;;;;5053189;28;20908;-82
2022/04/14 07:19:31;;;;;;;9.27;7.13;;;16.10;99.90;;;;;;5049155;28;20384;-82
2022/04/14 07:21:57;;;;;;;9.20;7.67;;;15.80;99.90;;;;;;5027650;28;20929;-83
2022/04/14 07:24:24;;;;;;;8.18;7.38;;;15.50;99.90;;;;;;5034029;28;20966;-84
2022/04/14 07:26:49;;;;;;;9.80;7.30;;;15.60;99.90;;;;;;5065654;28;20392;-83
2022/04/14 07:29:15;;;;;;;9.20;6.63;;;15.70;99.90;;;;;;5055080;28;20387;-83
2022/04/14 07:31:42;;;;;;;7.68;6.82;;;16.00;99.90;;;;;;5052313;28;20396;-82
2022/04/14 07:34:10;;;;;;;9.23;6.60;;;16.30;99.90;;;;;;5043186;28;20397;-83
2022/04/14 07:36:40;;;;;;;8.10;6.35;;;16.40;99.90;;;;;;5047923;28;20395;-87
2022/04/14 07:39:15;;;;;;;7.43;6.38;;;16.80;99.90;;;;;;5048481;28;20385;-83
2022/04/14 07:41:41;;;;;;;9.40;6.00;;;17.30;99.90;;;;;;5041945;28;20409;-83
2022/04/14 07:44:07;;;;;;;8.63;5.83;;;17.50;99.90;;;;;;5039750;28;20400;-83
2022/04/14 07:46:35;;;;;;;7.38;5.82;;;17.70;99.90;;;;;;5043476;28;20848;-83
2022/04/14 07:49:01;;;;;;;6.10;5.50;;;17.40;99.90;;;;;;5042381;28;20743;-83
2022/04/14 07:51:27;;;;;;;6.63;5.30;;;17.30;99.90;;;;;;5044308;28;20375;-83
2022/04/14 07:53:53;;;;;;;6.13;5.20;;;17.20;99.90;;;;;;5040862;28;20396;-84
2022/04/14 07:56:22;;;;;;;7.97;5.30;;;17.20;99.90;;;;;;5044902;28;20391;-84
2022/04/14 07:58:48;;;;;;;6.95;5.20;;;17.20;99.90;;;;;;5040939;28;20385;-83
2022/04/14 08:01:14;;;;;;;5.65;4.70;;;16.80;99.90;;;;;;5043863;28;20431;-84
2022/04/14 08:03:40;;;;;;;6.43;5.03;;;16.60;99.90;;;;;;5039662;28;20404;-83
2022/04/14 08:06:05;;;;;;;6.47;5.03;;;16.60;99.90;;;;;;5039873;28;20389;-84
2022/04/14 08:08:31;;;;;;;5.95;4.63;;;16.60;99.90;;;;;;5043338;28;20895;-85
2022/04/14 08:11:01;;;;;;;7.10;4.70;;;16.70;99.90;;;;;;5041997;28;20396;-83
2022/04/14 08:13:29;;;;;;;9.05;5.40;;;16.40;99.90;;;;;;5043473;28;20408;-84
2022/04/14 08:15:55;;;;;;;5.45;4.70;;;16.20;99.90;;;;;;5040587;28;20454;-84
2022/04/14 08:18:20;;;;;;;6.45;5.40;;;16.30;99.90;;;;;;5039893;28;20491;-84
2022/04/14 08:20:46;;;;;;;7.17;5.80;;;16.20;99.90;;;;;;5042531;28;20750;-83
2022/04/14 08:23:14;;;;;;;7.47;6.33;;;16.20;99.90;;;;;;5039552;28;20475;-84
2022/04/14 08:25:44;;;;;;;7.43;5.50;;;16.10;99.90;;;;;;5045066;28;20395;-84
2022/04/14 08:28:33;;;;;;;8.32;5.93;;;16.10;99.90;;;;;;5040858;28;20516;-84
2022/04/14 08:31:02;;;;;;;6.82;5.93;;;16.30;99.90;;;;;;5042270;28;20411;-86
2022/04/14 08:33:28;;;;;;;7.90;5.82;;;16.40;99.90;;;;;;5037821;28;20382;-85
2022/04/14 08:35:54;;;;;;;7.63;6.40;;;16.50;99.90;;;;;;5039362;28;20457;-85
2022/04/14 08:38:25;;;;;;;7.17;6.47;;;16.60;99.90;;;;;;5044651;28;20428;-85
2022/04/14 08:41:00;;;;;;;9.48;6.30;;;16.50;99.90;;;;;;5041272;28;20906;-85
2022/04/14 08:43:34;;;;;;;8.20;6.35;;;16.60;99.90;;;;;;5044589;28;20420;-86
2022/04/14 08:46:03;;;;;;;8.45;6.07;;;16.60;99.90;;;;;;5038549;28;20496;-87
2022/04/14 08:48:30;;;;;;;7.97;6.15;;;16.70;99.90;;;;;;5044461;28;20380;-85
2022/04/14 08:50:59;;;;;;;8.52;6.35;;;16.80;99.90;;;;;;5038743;28;20385;-84
2022/04/14 08:53:26;;;;;;;7.10;5.80;;;16.60;99.90;;;;;;5037210;28;20501;-86
2022/04/14 08:55:52;;;;;;;8.85;5.53;;;16.60;99.90;;;;;;5041091;28;20550;-83
2022/04/14 08:58:19;;;;;;;7.32;5.70;;;16.60;99.90;;;;;;5038637;28;20750;-84
2022/04/14 09:00:45;;;;;;;6.85;5.63;;;16.30;99.90;;;;;;5040619;28;20420;-84
2022/04/14 09:03:18;;;;;;;7.60;5.43;;;16.00;99.90;;;;;;5039309;28;20562;-84
2022/04/14 09:05:44;;;;;;;6.47;5.05;;;16.00;99.90;;;;;;5041934;28;20393;-83
2022/04/14 09:08:10;;;;;;;6.57;5.10;;;15.90;99.90;;;;;;5041985;28;20383;-83
2022/04/14 09:10:36;;;;;;;7.82;5.30;;;15.90;99.90;;;;;;5041931;28;20824;-83
2022/04/14 09:13:02;;;;;;;6.05;5.00;;;15.90;99.90;;;;;;5039760;28;20480;-82
2022/04/14 09:15:27;;;;;;;5.78;4.20;;;16.00;99.90;;;;;;5039105;28;20400;-84
2022/04/14 09:17:54;;;;;;;5.80;4.57;;;16.00;99.90;;;;;;5041470;28;20384;-83
2022/04/14 09:20:37;;;;;;;6.70;4.70;;;15.80;99.90;;;;;;5044878;28;20426;-83
2022/04/14 09:23:23;;;;;;;5.35;3.60;;;15.60;99.90;;;;;;5046264;28;20418;-84
2022/04/14 09:26:02;;;;;;;5.43;4.00;;;15.60;99.90;;;;;;5050201;28;20391;-83
2022/04/14 09:28:28;;;;;;;5.75;3.72;;;15.50;99.90;;;;;;5050104;28;20375;-83
2022/04/14 09:31:04;;;;;;;5.53;3.95;;;15.60;99.90;;;;;;5052538;28;20406;-84
2022/04/14 09:33:31;;;;;;;4.57;3.20;;;15.80;99.90;;;;;;5051739;28;20961;-83
2022/04/14 09:36:09;;;;;;;8.27;3.80;;;15.80;99.90;;;;;;5049306;28;20433;-85
2022/04/14 09:39:01;;;;;;;3.47;2.78;;;15.90;99.90;;;;;;5050394;28;20368;-84
2022/04/14 09:41:28;;;;;;;4.15;2.50;;;15.70;99.90;;;;;;5051493;28;20411;-84
2022/04/14 09:43:54;;;;;;;4.50;3.17;;;15.60;99.90;;;;;;5039207;28;20401;-85
2022/04/14 09:46:20;;;;;;;28.90;6.03;;;15.50;99.90;;;;;;5045047;28;20439;-84
2022/04/14 09:49:23;;;;;;;4.27;3.60;;;15.50;99.90;;;;;;5049113;28;20434;-84
2022/04/14 09:51:51;;;;;;;5.28;4.10;;;15.20;99.90;;;;;;4971387;28;20453;-83
2022/04/14 09:54:18;;;;;;;5.63;4.25;;;14.90;99.90;;;;;;5035139;28;20415;-82
2022/04/14 09:56:44;;;;;;;6.83;4.60;;;14.70;99.90;;;;;;5051325;28;20454;-83
2022/04/14 09:59:11;;;;;;;5.68;4.72;;;14.80;99.90;;;;;;5051307;28;20426;-82
2022/04/14 10:01:37;;;;;;;7.40;5.88;;;14.90;99.90;;;;;;5048459;28;20984;-82
2022/04/14 10:04:07;;;;;;;6.90;5.93;;;15.20;99.90;;;;;;5048305;28;20380;-81
2022/04/14 10:06:33;;;;;;;7.00;6.15;;;15.50;99.90;;;;;;5049387;28;20398;-82
2022/04/14 10:08:59;;;;;;;7.82;6.07;;;15.50;99.90;;;;;;5048393;28;20384;-82
2022/04/14 10:11:29;;;;;;;7.28;6.57;;;15.60;99.90;;;;;;5048321;28;20974;-82
2022/04/14 10:14:09;;;;;;;8.37;7.33;;;15.70;99.90;;;;;;5048331;28;20831;-82
2022/04/14 10:16:37;;;;;;;8.40;7.28;;;15.80;99.90;;;;;;5047703;28;20400;-82
2022/04/14 10:19:03;;;;;;;8.25;7.43;;;15.80;99.90;;;;;;5048030;28;20388;-82
2022/04/14 10:21:29;;;;;;;8.68;7.78;;;15.80;99.90;;;;;;5048289;28;20934;-82
2022/04/14 10:23:55;;;;;;;9.35;8.45;;;15.70;99.90;;;;;;5048853;28;20367;-82
2022/04/14 10:26:21;;;;;;;10.05;9.05;;;15.80;99.90;;;;;;5048360;28;20445;-82
2022/04/14 10:28:49;;;;;;;10.25;9.25;;;15.70;99.90;;;;;;5047111;28;20422;-82
2022/04/14 10:31:17;;;;;;;11.70;9.68;;;15.70;99.90;;;;;;5048476;28;20462;-82
2022/04/14 10:33:45;;;;;;;10.88;9.88;;;15.60;99.90;;;;;;5037621;28;20994;-82
2022/04/14 10:36:11;;;;;;;12.27;11.07;;;15.30;99.90;;;;;;5032164;28;20418;-82
2022/04/14 10:38:45;;;;;;;13.60;12.30;;;15.20;99.90;;;;;;5037062;28;20726;-84
2022/04/14 10:41:18;;;;;;;12.95;11.73;;;15.20;99.90;;;;;;5034821;28;20479;-82
2022/04/14 10:43:46;;;;;;;14.80;13.30;;;15.10;99.90;;;;;;5040549;28;20392;-82
2022/04/14 10:46:16;;;;;;;14.40;12.90;;;15.10;99.90;;;;;;5041443;28;20385;-82
2022/04/14 10:48:44;;;;;;;13.85;12.45;;;15.00;99.90;;;;;;5031033;28;20400;-82
2022/04/14 10:51:21;;;;;;;13.65;12.20;;;15.00;99.90;;;;;;5030872;28;20386;-85
2022/04/14 10:54:00;;;;;;;13.23;11.88;;;14.90;99.90;;;;;;5039398;28;20486;-82
2022/04/14 10:56:34;;;;;;;12.65;11.35;;;14.70;99.90;;;;;;5046600;28;20391;-82
2022/04/14 10:59:13;;;;;;;11.82;10.63;;;14.60;99.90;;;;;;5031267;28;20738;-82
2022/04/14 11:02:02;;;;;;;11.13;9.90;;;14.50;99.90;;;;;;5040432;28;20459;-82
2022/04/14 11:04:46;;;;;;;7.00;6.30;;;14.50;99.90;;;;;;5033506;28;20416;-83
2022/04/14 11:07:16;;;;;;;6.05;4.50;;;14.60;99.90;;;;;;5042225;28;20383;-83
2022/04/14 11:09:42;;;;;;;4.50;4.00;;;14.40;99.90;;;;;;5042144;28;20387;-82
2022/04/14 11:12:10;;;;;;;5.40;4.00;;;14.30;99.90;;;;;;5037879;28;20405;-82
2022/04/14 11:14:37;;;;;;;4.20;3.80;;;14.10;99.90;;;;;;5036792;28;20445;-82
2022/04/14 11:17:03;;;;;;;6.60;4.30;;;14.00;99.90;;;;;;5040684;28;20407;-83
2022/04/14 11:19:30;;;;;;;6.90;4.75;;;14.00;99.90;;;;;;5036029;28;20382;-84
2022/04/14 11:22:07;;;;;;;6.55;4.50;;;14.20;99.90;;;;;;5031716;28;20439;-83
2022/04/14 11:24:34;;;;;;;6.25;3.50;;;14.30;99.90;;;;;;5044302;28;20396;-83
2022/04/14 11:27:25;;;;;;;7.88;3.80;;;14.30;99.90;;;;;;5039918;28;20393;-82
2022/04/14 11:29:57;;;;;;;4.63;3.17;;;14.30;99.90;;;;;;5037084;28;20390;-84
2022/04/14 11:32:41;;;;;;;5.03;3.20;;;14.30;99.90;;;;;;5044211;28;20460;-83
2022/04/14 11:35:17;;;;;;;4.60;3.40;;;14.30;99.90;;;;;;5049516;28;20384;-83
2022/04/14 11:37:45;;;;;;;5.93;3.90;;;14.30;99.90;;;;;;5043977;28;20387;-83
2022/04/14 11:40:23;;;;;;;4.78;4.07;;;14.30;99.90;;;;;;5036804;28;20453;-82
2022/04/14 11:42:53;;;;;;;6.80;4.75;;;14.40;99.90;;;;;;5027441;28;20409;-83
2022/04/14 11:45:23;;;;;;;5.22;4.60;;;14.40;99.90;;;;;;5029787;28;20395;-84
2022/04/14 11:47:49;;;;;;;6.38;5.38;;;14.60;99.90;;;;;;5036400;28;20385;-83
2022/04/14 11:50:25;;;;;;;6.53;4.72;;;14.60;99.90;;;;;;5044875;28;20396;-84
2022/04/14 11:53:01;;;;;;;6.90;5.07;;;14.70;99.90;;;;;;5039387;28;20408;-82
2022/04/14 11:55:42;;;;;;;7.72;6.32;;;14.80;99.90;;;;;;5037112;28;20399;-83
2022/04/14 11:58:13;;;;;;;7.67;5.93;;;14.90;99.90;;;;;;5035793;28;20426;-82
2022/04/14 12:00:50;;;;;;;6.95;5.60;;;14.90;99.90;;;;;;5036980;28;20951;-84
2022/04/14 12:03:29;;;;;;;6.15;5.22;;;15.00;99.90;;;;;;5042135;28;20476;-84
2022/04/14 12:05:55;;;;;;;6.60;5.90;;;15.00;99.90;;;;;;5038784;28;20399;-84
2022/04/14 12:08:21;;;;;;;5.43;4.90;;;14.90;99.90;;;;;;5036025;28;20373;-84
2022/04/14 12:10:46;;;;;;;6.27;4.63;;;14.90;99.90;;;;;;5044136;28;20411;-83
2022/04/14 12:13:12;;;;;;;5.80;5.10;;;14.90;99.90;;;;;;5045146;28;20485;-84
2022/04/14 12:15:39;;;;;;;5.80;5.22;;;14.90;99.90;;;;;;5042081;28;20379;-83
2022/04/14 12:18:09;;;;;;;8.23;6.88;;;14.80;99.90;;;;;;5036745;28;20408;-84
2022/04/14 12:20:36;;;;;;;8.13;7.32;;;14.80;99.90;;;;;;5047839;28;20953;-84
2022/04/14 12:23:02;;;;;;;7.90;6.90;;;14.70;99.90;;;;;;5039318;28;20392;-83
2022/04/14 12:25:28;;;;;;;7.15;6.45;;;14.70;99.90;;;;;;5037187;28;20385;-83
2022/04/14 12:27:54;;;;;;;6.60;6.00;;;14.80;99.90;;;;;;5041757;28;20376;-84
2022/04/14 12:30:22;;;;;;;6.63;6.00;;;14.70;99.90;;;;;;5043203;28;20387;-84
2022/04/14 12:32:49;;;;;;;6.18;5.05;;;14.70;99.90;;;;;;5038120;28;20408;-84
2022/04/14 12:35:37;;;;;;;7.80;5.43;;;14.60;99.90;;;;;;5045278;28;20383;-83
2022/04/14 12:38:14;;;;;;;6.18;5.47;;;14.60;99.90;;;;;;5050008;28;20474;-84
2022/04/14 12:41:00;;;;;;;6.45;5.80;;;14.50;99.90;;;;;;5048118;28;20431;-84
2022/04/14 12:43:37;;;;;;;8.40;5.70;;;14.60;99.90;;;;;;5041394;28;20448;-84
2022/04/14 12:46:30;;;;;;;7.53;6.13;;;14.50;99.90;;;;;;5040927;28;20927;-85